createdAt,value
2022-12-13T00:00:47.526Z,3.88
2022-12-13T00:03:23.087Z,3.67
2022-12-13T00:05:58.579Z,3.40
2022-12-13T00:08:32.861Z,3.75
2022-12-13T00:11:08.483Z,3.33
2022-12-13T00:13:47.029Z,3.50
2022-12-13T00:16:32.411Z,3.45
2022-12-13T00:19:13.196Z,3.38
2022-12-13T00:21:48.760Z,2.90
2022-12-13T00:24:23.636Z,3.15
2022-12-13T00:26:58.068Z,3.55
2022-12-13T00:29:34.422Z,3.13
2022-12-13T00:32:08.568Z,3.95
2022-12-13T00:34:47.696Z,4.38
2022-12-13T00:37:22.329Z,3.53
2022-12-13T00:40:02.454Z,3.47
2022-12-13T00:42:43.421Z,3.50
2022-12-13T00:45:47.141Z,3.80
2022-12-13T00:48:24.464Z,3.33
2022-12-13T00:50:58.786Z,3.10
2022-12-13T00:53:36.303Z,2.60
2022-12-13T00:56:18.630Z,3.13
2022-12-13T00:58:52.626Z,3.38
2022-12-13T01:01:30.199Z,2.92
2022-12-13T01:04:06.713Z,3.17
2022-12-13T01:06:42.559Z,3.22
2022-12-13T01:09:20.090Z,2.70
2022-12-13T01:11:58.936Z,2.75
2022-12-13T01:14:33.053Z,2.88
2022-12-13T01:17:08.795Z,2.67
2022-12-13T01:19:42.890Z,3.35
2022-12-13T01:22:16.804Z,2.97
2022-12-13T01:24:50.990Z,2.95
2022-12-13T01:27:25.347Z,3.30
2022-12-13T01:29:59.273Z,3.08
2022-12-13T01:32:34.582Z,2.90
2022-12-13T01:35:09.443Z,2.85
2022-12-13T01:37:43.402Z,3.20
2022-12-13T01:40:17.515Z,3.05
2022-12-13T01:42:51.382Z,2.95
2022-12-13T01:45:29.269Z,3.15
2022-12-13T01:48:06.964Z,2.97
2022-12-13T01:50:44.914Z,3.22
2022-12-13T01:53:23.238Z,3.55
2022-12-13T01:56:03.155Z,2.80
2022-12-13T01:58:39.568Z,3.15
2022-12-13T02:01:13.495Z,3.40
2022-12-13T02:03:49.340Z,2.92
2022-12-13T02:06:30.370Z,2.75
2022-12-13T02:09:07.410Z,3.15
2022-12-13T02:11:44.887Z,3.35
2022-12-13T02:14:19.220Z,2.97
2022-12-13T02:20:12.508Z,2.50
2022-12-13T02:23:15.550Z,2.92
2022-12-13T02:26:08.472Z,3.30
2022-12-13T02:28:57.892Z,2.97
2022-12-13T02:31:39.952Z,2.10
2022-12-13T02:34:19.996Z,3.22
2022-12-13T02:37:03.305Z,3.25
2022-12-13T02:39:42.731Z,2.40
2022-12-13T02:42:21.841Z,2.45
2022-12-13T02:45:01.472Z,2.55
2022-12-13T02:47:43.518Z,2.53
2022-12-13T02:50:17.907Z,2.63
2022-12-13T02:52:52.801Z,3.05
2022-12-13T02:55:28.394Z,2.72
2022-12-13T02:58:02.590Z,3.00
2022-12-13T03:00:45.197Z,3.35
2022-12-13T03:03:33.309Z,2.80
2022-12-13T03:06:36.240Z,2.80
2022-12-13T03:09:27.268Z,3.20
2022-12-13T03:12:32.338Z,2.47
2022-12-13T03:15:17.471Z,2.50
2022-12-13T03:17:55.400Z,2.20
2022-12-13T03:20:31.411Z,2.60
2022-12-13T03:23:05.303Z,2.97
2022-12-13T03:28:13.879Z,2.80
2022-12-13T03:30:47.843Z,2.40
2022-12-13T03:33:22.222Z,2.42
2022-12-13T03:35:58.352Z,2.33
2022-12-13T03:38:32.413Z,2.92
2022-12-13T03:41:10.005Z,2.55
2022-12-13T03:43:44.282Z,2.20
2022-12-13T03:46:18.263Z,2.10
2022-12-13T03:48:52.351Z,2.55
2022-12-13T03:51:27.783Z,2.53
2022-12-13T03:54:01.658Z,2.42
2022-12-13T03:59:10.607Z,2.63
2022-12-13T04:01:44.765Z,2.88
2022-12-13T04:04:18.751Z,2.78
2022-12-13T04:09:27.484Z,2.10
2022-12-13T04:14:51.639Z,2.35
2022-12-13T04:19:58.977Z,2.47
2022-12-13T04:25:08.142Z,2.35
2022-12-13T04:27:42.553Z,2.00
2022-12-13T04:32:50.028Z,2.87
2022-12-13T04:37:58.959Z,2.10
2022-12-13T04:40:32.735Z,2.58
2022-12-13T04:45:40.165Z,2.13
2022-12-13T04:48:30.512Z,2.63
2022-12-13T04:51:05.814Z,2.13
2022-12-13T04:53:41.056Z,2.50
2022-12-13T04:56:14.933Z,2.38
2022-12-13T05:01:22.472Z,2.10
2022-12-13T05:03:56.296Z,2.75
2022-12-13T05:09:05.123Z,2.70
2022-12-13T05:11:46.229Z,2.40
2022-12-13T05:14:23.423Z,2.40
2022-12-13T05:16:57.759Z,2.60
2022-12-13T05:19:31.982Z,2.00
2022-12-13T05:22:05.877Z,2.88
2022-12-13T05:24:42.376Z,2.70
2022-12-13T05:27:24.724Z,2.10
2022-12-13T05:32:43.775Z,1.88
2022-12-13T05:35:22.560Z,2.30
2022-12-13T05:37:57.663Z,2.30
2022-12-13T05:43:21.766Z,2.53
2022-12-13T05:45:56.666Z,2.30
2022-12-13T05:48:30.479Z,1.88
2022-12-13T05:53:51.542Z,2.35
2022-12-13T05:56:28.644Z,2.20
2022-12-13T05:59:02.483Z,2.30
2022-12-13T06:04:23.092Z,2.10
2022-12-13T06:06:57.181Z,2.17
2022-12-13T06:12:30.977Z,2.70
2022-12-13T06:15:02.035Z,2.38
2022-12-13T06:17:37.535Z,1.77
2022-12-13T06:20:24.006Z,2.22
2022-12-13T06:23:00.264Z,1.50
2022-12-13T06:25:34.102Z,2.22
2022-12-13T06:30:42.975Z,2.17
2022-12-13T06:33:23.282Z,1.80
2022-12-13T06:36:00.764Z,1.83
2022-12-13T06:38:35.255Z,1.73
2022-12-13T06:41:18.601Z,2.17
2022-12-13T06:43:54.346Z,2.05
2022-12-13T06:46:28.537Z,1.80
2022-12-13T06:49:04.466Z,2.10
2022-12-13T06:51:39.174Z,1.67
2022-12-13T06:56:46.632Z,1.77
2022-12-13T06:59:22.131Z,2.08
2022-12-13T07:02:03.076Z,1.85
2022-12-13T07:04:38.109Z,1.77
2022-12-13T07:07:14.461Z,1.75
2022-12-13T07:09:48.959Z,1.63
2022-12-13T07:12:23.377Z,1.65
2022-12-13T07:14:58.756Z,1.90
2022-12-13T07:17:34.600Z,2.05
2022-12-13T07:20:10.559Z,2.15
2022-12-13T07:22:48.550Z,2.47
2022-12-13T07:25:26.778Z,1.95
2022-12-13T07:28:03.298Z,2.47
2022-12-13T07:30:41.056Z,1.90
2022-12-13T07:33:22.020Z,2.70
2022-12-13T07:36:02.021Z,2.67
2022-12-13T07:38:36.059Z,2.47
2022-12-13T07:43:44.237Z,2.70
2022-12-13T07:46:23.550Z,2.35
2022-12-13T07:49:07.111Z,3.03
2022-12-13T07:54:14.531Z,3.17
2022-12-13T07:59:28.835Z,3.03
2022-12-13T08:02:04.569Z,3.63
2022-12-13T08:04:38.720Z,3.60
2022-12-13T08:07:13.059Z,3.05
2022-12-13T08:09:52.545Z,4.05
2022-12-13T08:12:27.104Z,3.17
2022-12-13T08:15:01.026Z,3.45
2022-12-13T08:17:36.473Z,3.13
2022-12-13T08:20:11.622Z,3.78
2022-12-13T08:22:49.560Z,3.97
2022-12-13T08:25:23.649Z,3.38
2022-12-13T08:28:01.966Z,5.00
2022-12-13T08:30:36.502Z,3.83
2022-12-13T08:33:15.806Z,4.28
2022-12-13T08:35:50.458Z,3.13
2022-12-13T08:38:24.671Z,3.28
2022-12-13T08:41:00.622Z,3.40
2022-12-13T08:43:35.001Z,3.38
2022-12-13T08:46:09.169Z,3.80
2022-12-13T08:48:45.516Z,3.50
2022-12-13T08:51:25.595Z,3.00
2022-12-13T08:54:09.959Z,3.83
2022-12-13T08:56:45.219Z,3.40
2022-12-13T09:01:54.212Z,2.88
2022-12-13T09:04:32.335Z,12.38
2022-12-13T09:07:06.407Z,52.38
2022-12-13T09:12:30.308Z,79.47
2022-12-13T09:15:05.533Z,69.20
2022-12-13T09:17:57.085Z,65.05
2022-12-13T09:20:42.984Z,59.88
2022-12-13T09:23:23.635Z,58.22
2022-12-13T09:26:05.239Z,41.05
2022-12-13T09:28:44.348Z,27.92
2022-12-13T09:31:21.547Z,13.40
2022-12-13T09:33:59.743Z,9.70
2022-12-13T09:36:35.865Z,8.02
2022-12-13T09:39:12.676Z,6.90
2022-12-13T09:41:51.214Z,6.72
2022-12-13T09:44:42.500Z,7.15
2022-12-13T09:47:35.204Z,7.00
2022-12-13T09:50:17.451Z,7.35
2022-12-13T09:53:12.002Z,5.80
2022-12-13T09:56:10.961Z,5.90
2022-12-13T09:58:45.238Z,5.70
2022-12-13T10:01:22.454Z,4.80
2022-12-13T10:04:02.367Z,5.97
2022-12-13T10:06:40.059Z,5.65
2022-12-13T10:09:16.850Z,5.10
2022-12-13T10:11:52.181Z,5.38
2022-12-13T10:14:34.136Z,5.30
2022-12-13T10:17:11.534Z,5.18
2022-12-13T10:19:47.236Z,5.18
2022-12-13T10:22:22.971Z,4.85
2022-12-13T10:25:01.044Z,4.75
2022-12-13T10:27:37.924Z,5.68
2022-12-13T10:30:14.232Z,4.82
2022-12-13T10:32:55.180Z,3.90
2022-12-13T10:35:34.663Z,4.07
2022-12-13T10:38:31.655Z,4.68
2022-12-13T10:41:28.696Z,4.22
2022-12-13T10:44:22.919Z,3.97
2022-12-13T10:47:06.765Z,4.03
2022-12-13T10:52:31.244Z,3.85
2022-12-13T10:55:22.817Z,3.70
2022-12-13T10:58:02.150Z,3.78
2022-12-13T11:00:39.980Z,3.47
2022-12-13T11:03:29.871Z,3.28
2022-12-13T11:06:15.276Z,3.22
2022-12-13T11:08:50.861Z,3.53
2022-12-13T11:11:30.537Z,4.65
2022-12-13T11:14:05.910Z,4.00
2022-12-13T11:16:43.022Z,3.88
2022-12-13T11:19:25.221Z,3.63
2022-12-13T11:22:28.955Z,4.38
2022-12-13T11:25:08.021Z,3.28
2022-12-13T11:28:02.360Z,3.47
2022-12-13T11:30:45.775Z,3.40
2022-12-13T11:33:28.922Z,3.78
2022-12-13T11:36:13.062Z,3.50
2022-12-13T11:39:00.486Z,3.42
2022-12-13T11:41:39.757Z,3.15
2022-12-13T11:44:18.057Z,3.30
2022-12-13T11:46:56.350Z,4.00
2022-12-13T11:49:39.925Z,3.47
2022-12-13T11:52:20.054Z,11.13
2022-12-13T11:55:00.340Z,8.13
2022-12-13T11:57:44.188Z,13.43
2022-12-13T12:00:33.776Z,15.18
2022-12-13T12:03:22.274Z,14.40
2022-12-13T12:06:01.204Z,17.02
2022-12-13T12:08:39.884Z,15.52
2022-12-13T12:11:21.099Z,11.60
2022-12-13T12:13:58.545Z,12.30
2022-12-13T12:16:40.016Z,13.15
2022-12-13T12:19:18.203Z,13.10
2022-12-13T12:22:15.219Z,11.63
2022-12-13T12:25:20.295Z,11.05
2022-12-13T12:28:06.785Z,10.85
2022-12-13T12:30:51.125Z,10.38
2022-12-13T12:33:39.098Z,9.27
2022-12-13T12:36:39.653Z,9.98
2022-12-13T12:39:33.602Z,8.95
2022-12-13T12:42:44.613Z,8.05
2022-12-13T12:45:57.216Z,8.65
2022-12-13T12:49:03.149Z,6.97
2022-12-13T12:51:48.664Z,6.70
2022-12-13T12:54:45.527Z,7.00
2022-12-13T12:57:28.424Z,6.97
2022-12-13T13:00:06.585Z,7.38
2022-12-13T13:02:44.636Z,6.97
2022-12-13T13:05:24.184Z,7.43
2022-12-13T13:08:08.863Z,6.53
2022-12-13T13:10:50.070Z,7.80
2022-12-13T13:13:46.606Z,6.45
2022-12-13T13:16:42.931Z,6.35
2022-12-13T13:19:43.145Z,6.45
2022-12-13T13:22:43.055Z,5.80
2022-12-13T13:25:32.823Z,5.45
2022-12-13T13:28:16.957Z,6.30
2022-12-13T13:31:05.797Z,6.32
2022-12-13T13:33:48.546Z,6.00
2022-12-13T13:36:48.165Z,4.90
2022-12-13T13:39:40.802Z,5.32
2022-12-13T13:42:22.012Z,5.88
2022-12-13T13:45:22.761Z,5.40
2022-12-13T13:48:26.152Z,5.38
2022-12-13T13:52:08.509Z,5.80
2022-12-13T13:55:18.167Z,5.07
2022-12-13T13:58:22.977Z,4.80
2022-12-13T14:04:19.152Z,4.18
2022-12-13T14:07:44.789Z,4.55
2022-12-13T14:10:35.580Z,4.90
2022-12-13T14:13:54.997Z,4.72
2022-12-13T14:17:10.437Z,5.07
2022-12-13T14:20:24.830Z,4.60
2022-12-13T14:23:05.175Z,5.20
2022-12-13T14:26:11.012Z,4.40
2022-12-13T14:28:50.721Z,4.68
2022-12-13T14:31:27.664Z,4.85
2022-12-13T14:34:05.115Z,3.85
2022-12-13T14:36:39.438Z,4.75
2022-12-13T14:39:30.704Z,4.60
2022-12-13T14:42:24.510Z,4.82
2022-12-13T14:45:16.475Z,4.38
2022-12-13T14:47:51.834Z,4.30
2022-12-13T14:50:31.244Z,5.05
2022-12-13T14:53:07.147Z,4.82
2022-12-13T14:55:41.705Z,4.25
2022-12-13T14:58:21.710Z,5.28
2022-12-13T15:00:58.682Z,5.20
2022-12-13T15:03:35.471Z,5.22
2022-12-13T15:06:12.819Z,5.05
2022-12-13T15:08:49.089Z,4.93
2022-12-13T15:11:27.681Z,4.50
2022-12-13T15:14:01.815Z,4.78
2022-12-13T15:16:37.215Z,5.35
2022-12-13T15:19:30.943Z,4.15
2022-12-13T15:22:17.613Z,4.72
2022-12-13T15:24:55.963Z,5.50
2022-12-13T15:27:42.362Z,5.47
2022-12-13T15:30:22.536Z,4.95
2022-12-13T15:33:08.089Z,5.63
2022-12-13T15:35:42.214Z,4.93
2022-12-13T15:38:28.920Z,5.13
2022-12-13T15:41:05.081Z,5.10
2022-12-13T15:43:50.793Z,5.85
2022-12-13T15:46:29.692Z,6.28
2022-12-13T15:49:04.477Z,5.10
2022-12-13T15:51:55.606Z,5.85
2022-12-13T15:54:31.224Z,5.93
2022-12-13T15:57:14.803Z,5.47
2022-12-13T15:59:49.493Z,6.63
2022-12-13T16:02:25.566Z,5.47
2022-12-13T16:05:08.175Z,6.32
2022-12-13T16:07:42.083Z,6.53
2022-12-13T16:12:59.122Z,8.80
2022-12-13T16:15:48.621Z,8.85
2022-12-13T16:18:26.860Z,9.18
2022-12-13T16:21:01.359Z,15.57
2022-12-13T16:23:35.257Z,14.98
2022-12-13T16:26:13.588Z,21.23
2022-12-13T16:28:47.598Z,64.15
2022-12-13T16:31:23.803Z,48.75
2022-12-13T16:33:57.913Z,42.47
2022-12-13T16:36:32.176Z,40.50
2022-12-13T16:39:07.833Z,39.05
2022-12-13T16:41:46.156Z,35.60
2022-12-13T16:44:24.176Z,35.67
2022-12-13T16:47:11.911Z,33.13
2022-12-13T16:49:51.336Z,33.05
2022-12-13T16:52:25.508Z,31.95
2022-12-13T16:55:00.750Z,27.65
2022-12-13T16:57:36.097Z,28.65
2022-12-13T17:00:14.313Z,28.38
2022-12-13T17:02:48.266Z,24.63
2022-12-13T17:05:22.725Z,24.83
2022-12-13T17:07:57.591Z,25.95
2022-12-13T17:10:32.421Z,25.73
2022-12-13T17:13:07.808Z,24.33
2022-12-13T17:15:41.849Z,23.17
2022-12-13T17:18:16.812Z,21.98
2022-12-13T17:20:58.405Z,21.20
2022-12-13T17:23:33.054Z,22.02
2022-12-13T17:26:08.060Z,20.83
2022-12-13T17:28:43.375Z,20.85
2022-12-13T17:31:17.412Z,20.77
2022-12-13T17:33:52.537Z,20.92
2022-12-13T17:36:27.035Z,19.77
2022-12-13T17:39:01.029Z,19.83
2022-12-13T17:41:35.027Z,18.85
2022-12-13T17:46:44.240Z,18.88
2022-12-13T17:49:28.683Z,17.30
2022-12-13T17:52:03.026Z,17.98
2022-12-13T17:54:36.867Z,17.88
2022-12-13T17:57:12.025Z,16.83
2022-12-13T17:59:48.418Z,17.52
2022-12-13T18:02:23.166Z,16.27
2022-12-13T18:04:57.066Z,16.67
2022-12-13T18:10:04.554Z,16.93
2022-12-13T18:12:38.580Z,16.83
2022-12-13T18:15:13.955Z,16.23
2022-12-13T18:18:10.816Z,15.93
2022-12-13T18:20:42.138Z,15.18
2022-12-13T18:23:16.652Z,15.80
2022-12-13T18:25:53.067Z,15.90
2022-12-13T18:28:27.013Z,13.98
2022-12-13T18:31:06.109Z,14.48
2022-12-13T18:33:44.455Z,15.77
2022-12-13T18:36:22.941Z,14.25
2022-12-13T18:38:57.133Z,14.07
2022-12-13T18:41:32.564Z,14.07
2022-12-13T18:44:08.356Z,14.65
2022-12-13T18:46:46.117Z,13.55
2022-12-13T18:49:20.551Z,13.20
2022-12-13T18:51:54.576Z,13.75
2022-12-13T18:57:02.500Z,14.15
2022-12-13T18:59:36.576Z,13.10
2022-12-13T19:02:13.901Z,13.10
2022-12-13T19:04:54.872Z,11.95
2022-12-13T19:07:29.699Z,12.85
2022-12-13T19:10:04.135Z,11.80
2022-12-13T19:12:38.390Z,13.43
2022-12-13T19:15:13.120Z,12.07
2022-12-13T19:17:48.572Z,12.57
2022-12-13T19:20:22.675Z,13.32
2022-12-13T19:22:56.758Z,12.85
2022-12-13T19:25:30.828Z,11.70
2022-12-13T19:28:05.518Z,12.07
2022-12-13T19:30:42.896Z,12.20
2022-12-13T19:33:18.685Z,10.98
2022-12-13T19:35:53.173Z,11.25
2022-12-13T19:38:29.731Z,11.35
2022-12-13T19:41:10.102Z,11.32
2022-12-13T19:43:50.601Z,11.38
2022-12-13T19:46:28.555Z,11.98
2022-12-13T19:49:06.972Z,11.80
2022-12-13T19:51:41.629Z,13.23
2022-12-13T19:54:15.479Z,11.73
2022-12-13T19:59:25.221Z,12.10
2022-12-13T20:01:59.494Z,11.60
2022-12-13T20:04:35.118Z,11.82
2022-12-13T20:07:09.632Z,12.45
2022-12-13T20:09:43.654Z,12.52
2022-12-13T20:12:17.560Z,13.02
2022-12-13T20:17:25.554Z,12.57
2022-12-13T20:20:01.288Z,12.15
2022-12-13T20:22:35.751Z,13.18
2022-12-13T20:25:13.595Z,13.70
2022-12-13T20:27:48.013Z,13.73
2022-12-13T20:30:22.348Z,12.65
2022-12-13T20:32:56.481Z,12.77
2022-12-13T20:35:31.951Z,12.40
2022-12-13T20:38:06.033Z,12.98
2022-12-13T20:40:39.923Z,12.93
2022-12-13T20:43:13.928Z,14.48
2022-12-13T20:45:48.121Z,13.13
2022-12-13T20:48:22.243Z,13.50
2022-12-13T20:51:02.215Z,13.98
2022-12-13T20:53:37.867Z,13.25
2022-12-13T20:56:13.128Z,13.85
2022-12-13T20:58:47.691Z,13.55
2022-12-13T21:01:23.772Z,13.38
2022-12-13T21:04:00.383Z,14.38
2022-12-13T21:06:37.609Z,13.05
2022-12-13T21:09:12.830Z,13.70
2022-12-13T21:11:49.127Z,13.57
2022-12-13T21:14:25.306Z,12.70
2022-12-13T21:17:09.803Z,13.45
2022-12-13T21:19:43.758Z,13.65
2022-12-13T21:22:24.409Z,13.02
2022-12-13T21:24:58.302Z,13.27
2022-12-13T21:27:32.213Z,13.43
2022-12-13T21:30:07.104Z,12.85
2022-12-13T21:32:41.024Z,13.55
2022-12-13T21:37:49.955Z,13.93
2022-12-13T21:40:25.181Z,13.70
2022-12-13T21:42:59.349Z,13.65
2022-12-13T21:45:35.055Z,13.73
2022-12-13T21:48:09.024Z,14.65
2022-12-13T21:50:42.883Z,12.90
2022-12-13T21:53:18.302Z,12.80
2022-12-13T21:55:53.117Z,13.25
2022-12-13T22:01:23.466Z,14.95
2022-12-13T22:03:57.456Z,14.45
2022-12-13T22:09:06.691Z,15.32
2022-12-13T22:11:40.962Z,14.50
2022-12-13T22:14:14.835Z,13.40
2022-12-13T22:19:22.406Z,12.95
2022-12-13T22:21:56.486Z,13.00
2022-12-13T22:24:32.191Z,12.63
2022-12-13T22:27:06.204Z,13.60
2022-12-13T22:29:40.096Z,13.52
2022-12-13T22:32:14.003Z,13.18
2022-12-13T22:34:47.888Z,13.18
2022-12-13T22:39:56.773Z,14.00
2022-12-13T22:42:30.595Z,13.05
2022-12-13T22:47:42.402Z,13.15
2022-12-13T22:50:17.389Z,11.68
2022-12-13T22:52:52.879Z,12.15
2022-12-13T22:58:01.630Z,12.65
2022-12-13T23:03:09.162Z,11.80
2022-12-13T23:05:43.345Z,12.90
2022-12-13T23:08:17.220Z,12.05
2022-12-13T23:13:39.782Z,11.57
2022-12-13T23:18:47.600Z,12.60
2022-12-13T23:21:23.160Z,12.02
2022-12-13T23:23:58.044Z,11.65
2022-12-13T23:26:34.640Z,11.80
2022-12-13T23:29:09.514Z,13.00
2022-12-13T23:31:48.589Z,12.35
2022-12-13T23:34:22.863Z,11.55
2022-12-13T23:39:30.334Z,12.70
2022-12-13T23:42:05.880Z,11.15
2022-12-13T23:44:39.801Z,11.95
2022-12-13T23:47:13.646Z,11.50
2022-12-13T23:52:22.354Z,12.07
2022-12-13T23:57:31.261Z,11.07
